Nearby METAR Reports

 

EGNS - Isle Of Man/Rona, United Kingdom
Distance from station: SSW 16mi, 26km
Updated: 21/04/2021 20:20
Clear
Clear
 Wind from ENE
Wind: ENE 12 mph , 19 km/h
Temperature: 9°C
Wind Chill: 6°C
Dew Point: 3°C
Humidity: 66%
Barometer: 1024 hPa
Summary: Clear
Visibility: greater than 7 miles , 10 km
2021/04/21 19:20 EGNS 211920Z 06010KT CAVOK 09/03 Q1024 NOSIG
EGAC - Belfast Harbour, United Kingdom
Distance from station: WNW 57mi, 92km
Updated: 21/04/2021 20:20
Clear
Clear
 Wind from SE
Wind: SE 6 mph , 9 km/h
Temperature: 10°C
Wind Chill: 9°C
Dew Point: 4°C
Humidity: 67%
Barometer: 1024 hPa
Clouds: Clear
Visibility: 6 miles , 10 km
2021/04/21 19:20 EGAC 211920Z AUTO 13005KT 090V160 9999 NCD 10/04 Q1024
 
EGAA - Belfast/Aldergro, United Kingdom
Distance from station: WNW 71mi, 114km
Updated: 21/04/2021 20:20
Clear
Clear
 Wind from SE
Wind: SE 6 mph , 9 km/h
Temperature: 9°C
Wind Chill: 7°C
Dew Point: 4°C
Humidity: 71%
Barometer: 1024 hPa
Summary: Clear
Visibility: greater than 7 miles , 10 km
2021/04/21 19:20 EGAA 211920Z 13005KT CAVOK 09/04 Q1024
EGNH - Blackpool Airpor, United Kingdom
Distance from station: ESE 73mi, 117km
Updated: 21/04/2021 20:20
Partly cloudy
Partly cloudy
 Wind from ESE
Wind: ESE 8 mph , 13 km/h
Temperature: 10°C
Wind Chill: 8°C
Dew Point: 3°C
Humidity: 62%
Barometer: 1024 hPa
Clouds: Partly cloudy
Visibility: 6 miles , 10 km
Cloud details: Partly cloudy 1463 m
2021/04/21 19:20 EGNH 211920Z 11007KT 9999 SCT048 10/03 Q1024
 
EGOV - Valley Raf, United Kingdom
Distance from station: S 73mi, 118km
Updated: 21/04/2021 19:50
Mostly cloudy
Mostly cloudy
 Wind from ENE
Wind: ENE 13 mph , 20 km/h
Temperature: 12°C
Dew Point: 7°C
Humidity: 72%
Barometer: 1022 hPa
Clouds: Mostly cloudy
Visibility: 6 miles , 10 km
Cloud details: Mostly cloudy 1341 m
2021/04/21 18:50 EGOV 211850Z AUTO 07011KT 9999 BKN044/// 12/07 Q1022
EGNO - Wharton, United Kingdom
Distance from station: ESE 78mi, 125km
Updated: 21/04/2021 16:20
NOT Current
Mostly cloudy
Mostly cloudy
 Wind from E
Wind: E 9 mph , 15 km/h
Temperature: 13°C
Dew Point: 4°C
Humidity: 55%
Barometer: 1023 hPa
Clouds: Mostly cloudy
Visibility: 6 miles , 10 km
Cloud details: Mostly cloudy 1372 m
2021/04/21 15:20 EGNO 211520Z 08008KT 9999 BKN045 13/04 Q1023
 
EGOW - Woodvale Raf, United Kingdom
Distance from station: SE 79mi, 127km
Updated: 21/04/2021 14:20
NOT Current
Partly cloudy
Partly cloudy
 Wind from ESE
Wind: ESE 10 mph , 17 km/h
Temperature: 13°C
Dew Point: 4°C
Humidity: 55%
Barometer: 1024 hPa
Clouds: Partly cloudy
Visibility: 6 miles , 10 km
Cloud details: Few Clouds 1067 m
Partly cloudy 1372 m
2021/04/21 13:20 EGOW 211320Z 11009KT 9999 FEW035 SCT045 13/04 Q1024 RMK BLU
EGPK - Prestwick(Civ/Na, United Kingdom
Distance from station: N 82mi, 132km
Updated: 21/04/2021 20:20
Clear
Clear
 Wind from SW
Wind: SW 8 mph , 13 km/h
Temperature: 9°C
Wind Chill: 7°C
Dew Point: 4°C
Humidity: 71%
Barometer: 1024 hPa
Summary: Clear
Visibility: greater than 7 miles , 10 km
2021/04/21 19:20 EGPK 211920Z 22007KT CAVOK 09/04 Q1024
 
EGCK - Caernarfon, United Kingdom
Distance from station: S 84mi, 136km
Updated: 21/04/2021 20:20
Clear
Clear
 Wind from varies
Wind: varies 3 mph , 6 km/h
Temperature: 10°C
Dew Point: 7°C
Humidity: 82%
Barometer: 1023 hPa
Clouds: Clear
Visibility: 6 miles , 10 km
2021/04/21 19:20 EGCK 211920Z AUTO VRB03KT 9999 NCD 10/07 Q1023
EGEC - Campbeltown, United Kingdom
Distance from station: NNW 90mi, 144km
Updated: 21/04/2021 11:50
NOT Current
Clear
Clear
 Wind from ESE
Wind: ESE 17 mph , 28 km/h
Temperature: 11°C
Dew Point: 2°C
Humidity: 54%
Barometer: 1024 hPa
Summary: Clear
Visibility: greater than 7 miles , 10 km
2021/04/21 10:50 EGEC 211050Z 11015KT CAVOK 11/02 Q1024
 
EIDW - Dublin Airport, Ireland
Distance from station: SW 93mi, 150km
Updated: 21/04/2021 20:30
Few Clouds
Few Clouds
 Wind from E
Wind: E 8 mph , 13 km/h
Temperature: 8°C
Wind Chill: 6°C
Dew Point: 6°C
Humidity: 87%
Barometer: 1023 hPa
Clouds: Few Clouds
Visibility: 6 miles , 10 km
Cloud details: Few Clouds 457 m
2021/04/21 19:30 EIDW 211930Z 09007KT 9999 FEW015 08/06 Q1023 NOSIG
EGOM - Spadeadam, United Kingdom
Distance from station: NE 95mi, 152km
Updated: 21/04/2021 16:50
NOT Current
Clear
Clear
 Wind from ESE
Wind: ESE 10 mph , 17 km/h
Temperature: 9°C
Wind Chill: 7°C
Dew Point: -2°C
Humidity: 46%
Barometer: 1024 hPa
Summary: Clear
Visibility: greater than 7 miles , 10 km
2021/04/21 15:50 EGOM 211550Z 11009KT CAVOK 09/M02 Q1024 RMK BLU
 
EGGP - Liverpool Airpor, United Kingdom
Distance from station: SE 98mi, 157km
Updated: 21/04/2021 20:20
Overcast
Overcast
 Wind from E
Wind: E 9 mph , 15 km/h
Temperature: 12°C
Dew Point: 3°C
Humidity: 54%
Barometer: 1024 hPa
Clouds: Overcast
Visibility: 6 miles , 10 km
Cloud details: Overcast 1402 m
2021/04/21 19:20 EGGP 211920Z AUTO 09008KT 9999 OVC046/// 12/03 Q1024